Time;durP1;ratioP1;P1;durP2;ratioP2;P2;SDS_P1;SDS_P2;PMS_P1;PMS_P2;Temp;Humidity;BMP_temperature;BMP_pressure;BME280_temperature;BME280_humidity;BME280_pressure;Samples;Min_cycle;Max_cycle;Signal;HPM_P1;HPM_P2
2022/06/21 00:00:20;;;;;;;;;3.00;2.00;;;;;15.81;59.15;101781.69;5012892;28;9142;-65
2022/06/21 00:02:48;;;;;;;;;4.67;4.67;;;;;15.78;59.06;101783.97;5020319;28;9210;-67
2022/06/21 00:05:27;;;;;;;;;4.33;4.33;;;;;15.73;59.22;101786.47;5022678;28;9324;-66
2022/06/21 00:07:56;;;;;;;;;7.00;6.00;;;;;15.68;59.11;101780.84;5023715;28;9259;-67
2022/06/21 00:10:23;;;;;;;;;3.00;3.00;;;;;15.64;59.44;101772.25;5030638;28;9324;-67
2022/06/21 00:12:50;;;;;;;;;5.00;5.00;;;;;15.62;59.36;101768.03;5011969;28;9210;-67
2022/06/21 00:15:17;;;;;;;;;8.00;6.33;;;;;15.62;59.51;101765.34;5011870;28;9332;-65
2022/06/21 00:17:47;;;;;;;;;5.00;5.00;;;;;15.59;59.48;101763.84;5025462;28;9345;-66
2022/06/21 00:20:20;;;;;;;;;4.67;3.33;;;;;15.59;59.60;101763.84;5023949;28;9386;-66
2022/06/21 00:22:49;;;;;;;;;5.00;3.67;;;;;15.58;59.49;101759.47;5021026;28;9311;-66
2022/06/21 00:25:20;;;;;;;;;5.75;5.00;;;;;15.55;59.58;101751.72;5031841;28;9339;-66
2022/06/21 00:27:48;;;;;;;;;5.00;4.33;;;;;15.55;59.88;101754.44;5030105;28;9476;-66
2022/06/21 00:30:16;;;;;;;;;5.33;4.00;;;;;15.56;59.83;101750.72;5023161;28;9382;-65
2022/06/21 00:32:44;;;;;;;;;5.00;5.00;;;;;15.55;59.80;101755.28;5011683;28;9374;-65
2022/06/21 00:35:16;;;;;;;;;5.50;4.00;;;;;15.54;59.81;101745.47;5022668;28;9279;-66
2022/06/21 00:37:43;;;;;;;;;4.33;4.00;;;;;15.54;60.00;101752.78;5018211;28;9366;-66
2022/06/21 00:40:16;;;;;;;;;4.25;4.25;;;;;15.48;59.63;101749.03;5024173;28;9371;-65
2022/06/21 00:42:46;;;;;;;;;3.50;3.25;;;;;15.43;60.04;101746.06;4995163;28;9445;-66
2022/06/21 00:45:46;;;;;;;;;7.33;5.33;;;;;15.39;60.13;101743.97;5031382;28;9370;-66
2022/06/21 00:48:29;;;;;;;;;5.25;2.75;;;;;15.32;60.21;101744.78;5004702;28;9326;-66
2022/06/21 00:51:20;;;;;;;;;6.00;5.50;;;;;15.30;60.43;101736.00;5019466;28;10058;-67
2022/06/21 00:53:56;;;;;;;;;4.50;4.50;;;;;15.30;60.63;101741.44;5028309;28;9457;-67
2022/06/21 00:56:39;;;;;;;;;3.00;3.00;;;;;15.30;60.66;101743.31;5029322;28;9514;-67
2022/06/21 00:59:25;;;;;;;;;7.00;4.50;;;;;15.25;60.66;101741.22;5030063;28;9239;-66
2022/06/21 01:01:58;;;;;;;;;5.00;5.00;;;;;15.21;60.91;101739.13;5024720;28;9469;-67
2022/06/21 01:04:34;;;;;;;;;6.00;5.33;;;;;15.15;61.25;101739.91;5031248;28;9440;-66
2022/06/21 01:07:05;;;;;;;;;6.00;4.50;;;;;15.08;61.33;101727.19;5030634;28;9478;-67
2022/06/21 01:09:41;;;;;;;;;9.50;7.00;;;;;15.07;61.47;101727.38;5028461;28;9506;-67
2022/06/21 01:12:18;;;;;;;;;8.00;6.00;;;;;15.03;61.24;101723.41;5026565;28;10263;-66
2022/06/21 01:14:54;;;;;;;;;6.75;6.00;;;;;14.99;61.66;101719.41;5022493;28;9430;-66
2022/06/21 01:17:21;;;;;;;;;6.00;6.00;;;;;14.95;61.72;101708.16;5028391;28;9365;-66
2022/06/21 01:19:58;;;;;;;;;7.50;7.50;;;;;14.93;61.71;101706.66;5030161;28;10162;-66
2022/06/21 01:22:43;;;;;;;;;6.25;6.25;;;;;14.92;62.04;101705.00;5030164;28;9596;-66
2022/06/21 01:25:23;;;;;;;;;5.00;3.00;;;;;14.92;62.10;101705.00;5028798;28;9580;-66
2022/06/21 01:27:54;;;;;;;;;7.00;7.00;;;;;14.92;62.33;101703.13;5023904;28;9383;-66
2022/06/21 01:30:22;;;;;;;;;5.25;5.25;;;;;14.92;62.10;101703.13;5024883;28;9474;-66
2022/06/21 01:32:50;;;;;;;;;5.67;3.67;;;;;14.90;62.02;101707.91;5024474;28;9533;-66
2022/06/21 01:35:42;;;;;;;;;5.00;5.00;;;;;14.93;61.86;101706.66;5025272;28;9458;-66
2022/06/21 01:38:14;;;;;;;;;6.00;6.00;;;;;14.92;61.84;101700.41;5021122;28;9467;-66
2022/06/21 01:40:46;;;;;;;;;5.25;4.00;;;;;14.91;61.90;101703.31;5029853;28;9560;-66
2022/06/21 01:43:17;;;;;;;;;6.75;5.25;;;;;14.87;61.91;101702.03;5028784;28;9384;-66
2022/06/21 01:45:54;;;;;;;;;3.75;3.75;;;;;14.83;62.42;101697.03;5023494;28;10260;-66
2022/06/21 01:48:24;;;;;;;;;4.25;4.25;;;;;14.79;62.22;101695.78;5028274;28;9469;-66
2022/06/21 01:50:56;;;;;;;;;7.50;7.50;;;;;14.76;62.15;101701.59;5021340;28;9480;-66
2022/06/21 01:53:26;;;;;;;;;5.75;4.75;;;;;14.73;62.34;101699.28;5028596;28;9542;-66
2022/06/21 01:55:58;;;;;;;;;4.50;4.50;;;;;14.72;62.55;101684.06;5028619;28;10827;-67
2022/06/21 01:58:31;;;;;;;;;4.50;3.25;;;;;14.70;62.63;101699.66;5020847;28;9457;-67
2022/06/21 02:01:07;;;;;;;;;5.25;5.25;;;;;14.71;62.78;101703.25;5012620;28;9631;-67
2022/06/21 02:03:38;;;;;;;;;5.50;5.50;;;;;14.70;62.70;101701.53;5025037;28;9557;-67
2022/06/21 02:06:09;;;;;;;;;7.00;7.00;;;;;14.68;63.01;101690.06;5028613;28;9596;-67
2022/06/21 02:08:47;;;;;;;;;3.25;3.25;;;;;14.65;62.88;101688.59;5020874;28;9490;-67
2022/06/21 02:11:28;;;;;;;;;4.33;4.33;;;;;14.68;62.79;101693.63;5025147;28;9477;-66
2022/06/21 02:16:48;;;;;;;;;6.00;6.00;;;;;14.67;62.78;101699.25;5009436;28;9559;-65
2022/06/21 02:19:44;;;;;;;;;9.50;5.50;;;;;14.64;62.64;101692.34;5009747;28;9445;-65
2022/06/21 02:22:16;;;;;;;;;7.50;5.00;;;;;14.61;62.60;101694.63;5019820;28;10344;-65
2022/06/21 02:24:43;;;;;;;;;6.00;6.00;;;;;14.59;62.61;101705.66;5019274;28;9383;-67
2022/06/21 02:27:12;;;;;;;;;6.25;5.75;;;;;14.54;62.80;101698.16;5029372;28;9596;-65
2022/06/21 02:29:42;;;;;;;;;5.25;4.00;;;;;14.49;62.81;101707.88;5019390;28;9502;-65
2022/06/21 02:32:24;;;;;;;;;5.25;5.00;;;;;14.41;62.84;101706.13;5020697;28;9522;-65
2022/06/21 02:34:56;;;;;;;;;6.00;5.00;;;;;14.37;62.94;101715.69;5009677;28;9511;-65
2022/06/21 02:37:23;;;;;;;;;2.50;2.50;;;;;14.33;62.93;101712.53;5023329;28;9619;-67
2022/06/21 02:39:50;;;;;;;;;5.00;3.00;;;;;14.30;63.09;101718.38;5033073;28;9526;-67
2022/06/21 02:42:22;;;;;;;;;6.00;4.00;;;;;14.31;63.21;101719.22;5031506;28;9608;-66
2022/06/21 02:45:00;;;;;;;;;5.75;5.50;;;;;14.28;63.27;101709.59;5021618;28;9745;-66
2022/06/21 02:47:35;;;;;;;;;5.50;5.50;;;;;14.26;63.39;101705.41;5013095;28;9673;-67
2022/06/21 02:50:13;;;;;;;;;4.25;4.25;;;;;14.24;63.57;101693.94;5013554;28;9591;-66
2022/06/21 02:52:42;;;;;;;;;7.50;5.50;;;;;14.21;63.38;101702.44;5028787;28;10489;-67
2022/06/21 02:55:20;;;;;;;;;5.00;5.00;;;;;14.17;63.54;101698.47;5027970;28;9667;-66
2022/06/21 02:58:05;;;;;;;;;6.00;6.00;;;;;14.15;63.43;101695.13;5032080;28;9551;-67
2022/06/21 03:00:31;;;;;;;;;10.50;8.00;;;;;14.11;63.75;101675.72;5028966;28;9569;-67
2022/06/21 03:03:00;;;;;;;;;8.25;7.25;;;;;14.07;63.86;101679.88;5022473;28;9875;-67
2022/06/21 03:05:28;;;;;;;;;6.00;6.00;;;;;14.04;63.89;101677.53;5030395;28;9753;-66
2022/06/21 03:07:58;;;;;;;;;7.00;5.75;;;;;14.01;63.98;101677.94;5032573;28;9755;-66
2022/06/21 03:10:30;;;;;;;;;9.25;8.25;;;;;14.00;64.28;101678.97;5032530;28;9751;-67
2022/06/21 03:13:07;;;;;;;;;4.50;4.50;;;;;13.99;64.07;101666.47;5026225;28;9695;-66
2022/06/21 03:15:35;;;;;;;;;7.75;7.75;;;;;13.98;64.25;101665.66;5031115;28;10471;-66
2022/06/21 03:18:06;;;;;;;;;8.50;8.50;;;;;13.97;64.19;101653.13;5031832;28;9842;-66
2022/06/21 03:20:34;;;;;;;;;6.25;6.25;;;;;13.92;64.36;101649.34;5029981;28;9871;-66
2022/06/21 03:23:02;;;;;;;;;5.25;3.50;;;;;13.93;64.42;101659.13;5024023;28;9898;-66
2022/06/21 03:26:00;;;;;;;;;7.00;7.00;;;;;13.92;64.21;101665.59;5031878;28;9848;-66
2022/06/21 03:28:34;;;;;;;;;3.00;3.00;;;;;13.88;64.30;101648.91;5031954;28;9769;-66
2022/06/21 03:31:06;;;;;;;;;5.50;5.25;;;;;13.88;64.41;101645.34;5024775;28;9762;-66
2022/06/21 03:33:36;;;;;;;;;6.50;6.50;;;;;13.87;64.52;101649.09;5020635;28;9865;-66
2022/06/21 03:36:07;;;;;;;;;9.50;8.50;;;;;13.85;64.72;101650.16;5021271;28;10465;-66
2022/06/21 03:38:36;;;;;;;;;6.75;6.50;;;;;13.87;64.79;101662.63;5030427;28;9930;-66
2022/06/21 03:43:57;;;;;;;;;5.50;5.50;;;;;13.87;64.73;101647.22;5016893;28;9872;-66
2022/06/21 03:46:31;;;;;;;;;5.25;5.25;;;;;13.87;64.62;101635.56;5023894;28;9873;-65
2022/06/21 03:49:04;;;;;;;;;6.25;5.00;;;;;13.88;64.42;101638.06;5031019;28;9791;-65
2022/06/21 03:51:39;;;;;;;;;6.00;5.25;;;;;13.85;64.26;101647.44;5026205;28;9997;-66
2022/06/21 03:54:12;;;;;;;;;4.75;4.75;;;;;13.84;64.57;101648.44;5020524;28;9867;-66
2022/06/21 03:56:52;;;;;;;;;5.00;5.00;;;;;13.84;64.68;101653.03;5025703;28;9842;-66
2022/06/21 03:59:31;;;;;;;;;10.25;9.25;;;;;13.84;64.88;101650.31;5031861;28;9761;-66
2022/06/21 04:02:12;;;;;;;;;8.00;7.75;;;;;13.83;64.88;101654.91;5030905;28;9831;-66
2022/06/21 04:04:46;;;;;;;;;9.50;6.50;;;;;13.84;64.75;101645.75;5023233;28;9844;-65
2022/06/21 04:07:22;;;;;;;;;8.00;8.00;;;;;13.94;65.28;101633.75;5030983;28;9918;-65
2022/06/21 04:09:54;;;;;;;;;7.50;7.50;;;;;14.23;64.50;101635.41;5030309;28;9986;-66
2022/06/21 04:12:43;;;;;;;;;9.75;6.00;;;;;14.30;63.83;101628.13;5025260;28;10660;-66
2022/06/21 04:15:17;;;;;;;;;6.50;5.75;;;;;14.25;63.85;101633.31;5018183;28;9745;-66
2022/06/21 04:17:58;;;;;;;;;6.75;6.75;;;;;14.16;64.36;101642.66;5012274;28;9954;-66
2022/06/21 04:20:28;;;;;;;;;7.00;4.50;;;;;14.12;64.27;101634.06;5015872;28;9813;-65
2022/06/21 04:23:05;;;;;;;;;6.00;6.00;;;;;14.10;64.62;101622.63;5008437;28;10365;-65
2022/06/21 04:25:44;;;;;;;;;6.00;5.00;;;;;14.10;64.50;101614.50;5031837;28;9758;-66
2022/06/21 04:28:19;;;;;;;;;7.00;6.00;;;;;14.09;64.82;101618.22;5031844;28;9660;-66
2022/06/21 04:30:50;;;;;;;;;4.75;4.75;;;;;14.09;64.77;101635.31;5027508;28;9506;-66
2022/06/21 04:33:27;;;;;;;;;3.00;3.00;;;;;14.09;64.67;101638.00;5030269;28;9732;-66
2022/06/21 04:36:03;;;;;;;;;6.25;6.25;;;;;14.13;64.99;101635.75;5024913;28;9628;-66
2022/06/21 04:38:45;;;;;;;;;6.00;6.00;;;;;14.16;65.00;101631.81;5031696;28;9533;-66
2022/06/21 04:41:26;;;;;;;;;7.25;7.25;;;;;14.20;64.99;101635.81;5024056;28;9748;-66
2022/06/21 04:44:14;;;;;;;;;6.25;6.25;;;;;14.23;65.02;101630.81;5019561;28;9599;-66
2022/06/21 04:46:56;;;;;;;;;4.25;4.25;;;;;14.26;64.99;101627.72;5024569;28;10319;-66
2022/06/21 04:49:30;;;;;;;;;3.67;3.33;;;;;14.29;65.23;101624.59;5013925;28;9504;-67
2022/06/21 04:52:03;;;;;;;;;7.00;4.00;;;;;14.32;65.16;101621.50;5022349;28;9387;-66
2022/06/21 04:54:33;;;;;;;;;6.00;6.00;;;;;14.35;65.36;101622.97;5025100;28;10434;-65
2022/06/21 04:57:10;;;;;;;;;2.00;2.00;;;;;14.42;65.45;101626.56;5013515;28;9394;-66
2022/06/21 04:59:49;;;;;;;;;5.75;5.75;;;;;14.48;65.35;101622.22;5010536;28;10187;-66
2022/06/21 05:02:27;;;;;;;;;3.00;3.00;;;;;14.52;65.44;101623.50;5030214;28;9600;-66
2022/06/21 05:05:19;;;;;;;;;6.00;4.25;;;;;14.58;65.09;101634.38;5024765;28;9473;-65
2022/06/21 05:08:03;;;;;;;;;3.00;3.00;;;;;14.62;65.22;101628.53;5005846;28;9701;-65
2022/06/21 05:10:37;;;;;;;;;2.00;2.00;;;;;14.64;65.18;101613.75;5027666;28;9437;-66
2022/06/21 05:13:10;;;;;;;;;2.25;2.00;;;;;14.68;65.28;101615.03;5028826;28;9438;-66
2022/06/21 05:15:40;;;;;;;;;2.00;2.00;;;;;14.71;65.01;101609.22;5021500;28;9458;-66
2022/06/21 05:18:13;;;;;;;;;3.00;3.00;;;;;14.72;64.77;101602.75;5010650;28;9325;-66
2022/06/21 05:20:48;;;;;;;;;4.33;4.33;;;;;14.74;65.02;101599.81;5017024;28;9385;-66
2022/06/21 05:23:18;;;;;;;;;3.33;3.33;;;;;14.76;64.79;101597.75;5028961;28;9328;-67
2022/06/21 05:25:46;;;;;;;;;4.00;4.00;;;;;14.81;64.36;101587.97;5018081;28;9391;-66
2022/06/21 05:28:37;;;;;;;;;4.25;4.25;;;;;14.85;64.61;101591.13;5022913;28;10142;-65
2022/06/21 05:31:14;;;;;;;;;4.00;3.33;;;;;14.94;64.83;101598.00;5030323;28;9366;-66
2022/06/21 05:33:47;;;;;;;;;6.25;4.75;;;;;15.13;64.69;101606.41;5028792;28;9487;-65
2022/06/21 05:36:20;;;;;;;;;4.00;4.00;;;;;15.36;64.71;101611.47;5023721;28;9429;-65
2022/06/21 05:38:52;;;;;;;;;4.33;4.00;;;;;15.64;64.01;101601.25;5025333;28;9245;-65
2022/06/21 05:41:31;;;;;;;;;5.00;4.00;;;;;15.92;63.78;101622.78;5030194;28;9293;-65
2022/06/21 05:44:08;;;;;;;;;6.67;5.33;;;;;16.19;62.99;101615.41;5030421;28;9147;-66
2022/06/21 05:46:41;;;;;;;;;6.00;3.00;;;;;16.39;62.69;101607.19;5029619;28;9252;-65
2022/06/21 05:49:27;;;;;;;;;5.00;5.00;;;;;16.54;61.83;101606.94;5031228;28;9832;-65
2022/06/21 05:51:58;;;;;;;;;5.67;5.67;;;;;16.68;61.84;101613.16;5028297;28;9163;-66
2022/06/21 05:54:32;;;;;;;;;8.67;6.33;;;;;16.80;60.78;101615.00;5020331;28;8944;-66
2022/06/21 05:57:03;;;;;;;;;4.33;4.33;;;;;16.78;60.46;101614.41;5019020;28;9048;-66
2022/06/21 05:59:29;;;;;;;;;4.00;4.00;;;;;16.80;60.52;101616.88;5017369;28;8940;-65
2022/06/21 06:02:19;;;;;;;;;5.67;4.67;;;;;16.82;60.58;101619.41;5027112;28;8984;-65
2022/06/21 06:05:24;;;;;;;;;5.33;5.33;;;;;16.87;60.61;101630.47;5030895;28;8998;-65
2022/06/21 06:07:56;;;;;;;;;6.75;6.25;;;;;16.86;60.15;101637.78;4967148;28;9113;-66
2022/06/21 06:10:25;;;;;;;;;7.67;7.00;;;;;16.84;60.17;101631.72;5029774;28;8829;-65
2022/06/21 06:12:59;;;;;;;;;3.75;3.75;;;;;16.83;59.92;101632.78;5032947;28;8907;-66
2022/06/21 06:15:35;;;;;;;;;3.00;3.00;;;;;16.78;59.50;101632.59;5033185;28;8833;-66
2022/06/21 06:18:27;;;;;;;;;3.75;3.75;;;;;16.77;59.70;101642.66;5029440;28;8921;-65
2022/06/21 06:21:12;;;;;;;;;4.50;3.50;;;;;16.75;59.86;101633.84;5029377;28;8817;-66
2022/06/21 06:23:43;;;;;;;;;2.25;2.25;;;;;16.71;59.37;101634.47;5025019;28;8963;-65
2022/06/21 06:26:24;;;;;;;;;3.50;3.00;;;;;16.61;59.31;101637.66;5032754;28;8838;-65
2022/06/21 06:28:56;;;;;;;;;3.00;3.00;;;;;16.59;59.63;101638.91;5020124;28;8916;-66
2022/06/21 06:31:33;;;;;;;;;3.25;3.00;;;;;16.51;59.58;101642.69;5035268;28;8914;-64
2022/06/21 06:34:07;;;;;;;;;3.33;3.33;;;;;16.49;60.03;101642.91;5034384;28;8837;-65
2022/06/21 06:36:40;;;;;;;;;2.00;2.00;;;;;16.49;59.55;101642.09;5026875;28;9048;-65
2022/06/21 06:39:22;;;;;;;;;2.75;2.75;;;;;16.51;59.71;101646.25;5034529;28;8944;-65
2022/06/21 06:42:01;;;;;;;;;2.25;2.25;;;;;16.55;58.98;101650.19;5023022;28;8909;-65
2022/06/21 06:44:32;;;;;;;;;3.75;3.75;;;;;16.56;59.52;101653.75;4997286;28;9594;-66
2022/06/21 06:47:02;;;;;;;;;4.00;3.67;;;;;16.55;58.99;101655.63;5014815;28;8824;-65
2022/06/21 06:49:39;;;;;;;;;5.67;5.33;;;;;16.48;58.98;101651.28;5028318;28;8987;-65
2022/06/21 06:52:15;;;;;;;;;3.00;3.00;;;;;16.41;59.61;101653.19;5027075;28;8990;-64
2022/06/21 06:55:11;;;;;;;;;3.25;2.00;;;;;16.48;59.94;101660.25;5014999;28;9019;-65
2022/06/21 06:58:01;;;;;;;;;2.00;2.00;;;;;16.61;59.91;101663.97;5014364;28;8850;-66
2022/06/21 07:00:35;;;;;;;;;2.50;1.25;;;;;16.63;58.84;101665.44;5026655;28;8886;-65
2022/06/21 07:03:13;;;;;;;;;3.25;3.25;;;;;16.67;58.99;101674.00;5028565;28;8823;-66
2022/06/21 07:06:02;;;;;;;;;5.00;3.00;;;;;16.69;58.25;101682.78;5026070;28;8825;-66
2022/06/21 07:09:00;;;;;;;;;1.50;1.25;;;;;16.70;58.38;101681.75;5033888;28;8911;-66
2022/06/21 07:12:07;;;;;;;;;4.00;3.25;;;;;16.72;58.17;101685.91;5030043;28;8934;-65
2022/06/21 07:14:35;;;;;;;;;3.00;3.00;;;;;16.81;57.94;101686.53;5022453;28;9644;-66
2022/06/21 07:17:06;;;;;;;;;2.25;2.25;;;;;16.88;58.15;101678.34;5018188;28;8857;-66
2022/06/21 07:19:32;;;;;;;;;2.25;2.25;;;;;16.93;57.94;101676.66;5026167;28;8829;-65
2022/06/21 07:21:59;;;;;;;;;2.00;2.00;;;;;16.95;57.59;101677.28;5016784;28;8804;-66
2022/06/21 07:24:26;;;;;;;;;1.75;1.75;;;;;16.98;57.25;101676.84;5026465;28;8899;-66
2022/06/21 07:26:59;;;;;;;;;2.00;2.00;;;;;17.01;57.03;101678.28;5026437;28;8823;-65
2022/06/21 07:29:56;;;;;;;;;2.00;2.00;;;;;16.90;55.95;101676.28;5026561;28;8838;-65
2022/06/21 07:32:29;;;;;;;;;2.75;2.75;;;;;16.89;55.76;101678.13;5026817;28;9012;-66
2022/06/21 07:35:11;;;;;;;;;2.25;2.25;;;;;16.94;55.97;101680.22;5025470;28;8821;-66
2022/06/21 07:37:47;;;;;;;;;3.50;2.50;;;;;16.99;56.20;101680.41;5027530;28;8810;-66
2022/06/21 07:40:31;;;;;;;;;2.00;2.00;;;;;17.07;56.15;101672.00;5016496;28;8847;-65
2022/06/21 07:43:06;;;;;;;;;1.75;1.75;;;;;17.16;56.11;101675.28;5013093;28;8902;-66
2022/06/21 07:45:41;;;;;;;;;4.25;2.00;;;;;17.18;56.16;101675.94;5042994;28;8839;-66
2022/06/21 07:48:18;;;;;;;;;3.50;2.25;;;;;17.18;55.68;101674.03;5028281;28;8855;-65
2022/06/21 07:50:50;;;;;;;;;2.50;2.50;;;;;17.19;55.79;101674.88;5012962;28;8824;-65
2022/06/21 07:53:24;;;;;;;;;3.25;3.25;;;;;17.20;55.64;101682.78;5032728;28;8837;-66
2022/06/21 07:55:58;;;;;;;;;2.25;2.25;;;;;17.27;55.73;101680.88;5032867;28;8830;-66
2022/06/21 07:58:32;;;;;;;;;4.00;3.00;;;;;17.35;55.42;101679.78;5018638;28;8867;-66
2022/06/21 08:06:46;;;;;;;;;1.75;1.00;;;;;17.53;54.55;101665.44;5032081;28;8964;-65
2022/06/21 08:09:26;;;;;;;;;1.50;1.50;;;;;17.58;54.37;101673.75;5024448;28;9601;-66
2022/06/21 08:12:00;;;;;;;;;1.00;1.00;;;;;17.61;53.37;101673.31;5017233;28;8825;-66
2022/06/21 08:14:34;;;;;;;;;2.50;2.50;;;;;17.65;53.20;101668.28;5032426;28;8813;-66
2022/06/21 08:17:08;;;;;;;;;1.00;1.00;;;;;17.71;53.55;101668.25;5029919;28;8911;-66
2022/06/21 08:19:54;;;;;;;;;1.75;1.75;;;;;17.82;53.80;101668.59;5027884;28;8837;-66
2022/06/21 08:22:47;;;;;;;;;2.25;2.00;;;;;17.87;53.69;101666.06;5012245;28;8839;-66
2022/06/21 08:25:47;;;;;;;;;2.00;2.00;;;;;17.80;53.44;101655.22;5005671;28;8861;-66
2022/06/21 08:28:34;;;;;;;;;2.00;2.00;;;;;17.67;53.71;101647.94;5011796;28;8827;-66
2022/06/21 08:31:10;;;;;;;;;2.00;2.00;;;;;17.59;54.45;101653.66;5019742;28;8895;-66
2022/06/21 08:33:49;;;;;;;;;2.75;2.75;;;;;17.63;54.31;101649.44;5031872;28;8864;-66
2022/06/21 08:36:41;;;;;;;;;2.75;2.75;;;;;17.60;54.10;101651.78;5044712;28;8908;-67
2022/06/21 08:39:24;;;;;;;;;4.00;2.75;;;;;17.55;54.05;101647.00;5011004;28;9528;-66
2022/06/21 08:42:37;;;;;;;;;1.50;1.25;;;;;17.49;54.34;101645.97;5012690;28;8816;-67
2022/06/21 08:45:57;;;;;;;;;2.75;2.00;;;;;17.50;54.10;101638.63;4987215;28;8832;-67
2022/06/21 08:48:44;;;;;;;;;3.75;2.75;;;;;17.43;54.15;101638.72;5026300;28;8845;-66
2022/06/21 08:51:33;;;;;;;;;1.50;1.50;;;;;17.53;54.12;101632.75;5027303;28;8830;-67
2022/06/21 08:54:30;;;;;;;;;1.00;1.00;;;;;17.55;53.99;101625.22;5019710;28;8825;-66
2022/06/21 08:57:23;;;;;;;;;3.00;3.00;;;;;17.58;53.82;101622.03;5031115;28;8854;-66
2022/06/21 08:59:57;;;;;;;;;2.00;2.00;;;;;17.66;53.75;101619.06;5014022;28;8869;-67
2022/06/21 09:02:43;;;;;;;;;2.25;2.25;;;;;17.76;53.01;101622.13;5013936;28;8916;-65
2022/06/21 09:05:39;;;;;;;;;2.50;1.50;;;;;17.87;52.44;101617.84;5031252;28;8833;-66
2022/06/21 09:08:30;;;;;;;;;5.25;5.25;;;;;17.98;52.04;101616.28;5031306;28;8845;-65
2022/06/21 09:11:06;;;;;;;;;2.00;2.00;;;;;18.09;52.08;101611.97;5032090;28;8830;-66
2022/06/21 09:13:55;;;;;;;;;2.00;2.00;;;;;18.25;52.05;101609.50;5031857;28;8887;-67
2022/06/21 09:16:41;;;;;;;;;2.75;2.75;;;;;18.40;51.33;101620.03;5027910;28;8899;-67
2022/06/21 09:19:14;;;;;;;;;2.25;2.25;;;;;18.51;50.54;101615.69;5030080;28;8849;-66
2022/06/21 09:21:58;;;;;;;;;2.75;2.25;;;;;18.63;50.61;101607.59;5029711;28;8838;-66
2022/06/21 09:24:39;;;;;;;;;4.00;3.00;;;;;18.69;50.37;101602.06;5029535;28;8822;-66
2022/06/21 09:27:25;;;;;;;;;2.00;2.00;;;;;18.86;50.08;101598.72;5040320;28;8917;-68
2022/06/21 09:30:02;;;;;;;;;0.75;0.75;;;;;18.94;50.35;101595.66;5013068;28;8850;-66
2022/06/21 09:32:40;;;;;;;;;4.00;2.00;;;;;18.99;49.52;101595.81;5029166;28;8848;-67
2022/06/21 09:35:20;;;;;;;;;1.00;1.00;;;;;19.07;48.71;101600.09;5029245;28;8821;-67
2022/06/21 09:38:30;;;;;;;;;3.50;2.00;;;;;19.08;47.99;101597.16;5023531;28;9633;-66
2022/06/21 09:41:20;;;;;;;;;2.25;2.25;;;;;19.01;47.96;101610.06;5009427;28;9561;-66
2022/06/21 09:44:05;;;;;;;;;2.00;1.50;;;;;19.00;48.48;101614.69;5024904;28;8855;-65
2022/06/21 09:46:59;;;;;;;;;1.50;1.50;;;;;18.96;48.56;101599.00;5021840;28;8909;-66
2022/06/21 09:49:37;;;;;;;;;1.50;1.50;;;;;19.00;48.97;101600.22;5020361;28;8829;-66
2022/06/21 09:52:20;;;;;;;;;3.00;3.00;;;;;19.02;49.93;101603.53;5031277;28;8851;-66
2022/06/21 09:55:11;;;;;;;;;2.75;2.75;;;;;18.95;49.27;101608.25;5026005;28;8856;-66
2022/06/21 09:57:41;;;;;;;;;2.00;2.00;;;;;18.94;49.94;101590.22;5026929;28;8925;-66
2022/06/21 10:00:23;;;;;;;;;3.00;3.00;;;;;18.94;49.87;101599.22;5016555;28;8843;-65
2022/06/21 10:03:16;;;;;;;;;5.00;1.75;;;;;18.97;48.88;101603.41;5025628;28;9596;-66
2022/06/21 10:06:07;;;;;;;;;2.25;2.00;;;;;19.00;48.98;101598.31;5022259;28;8857;-66
2022/06/21 10:08:59;;;;;;;;;3.50;2.50;;;;;19.05;49.28;101577.69;5024327;28;8935;-66
2022/06/21 10:11:47;;;;;;;;;3.25;2.50;;;;;19.20;48.58;101578.91;5022806;28;8837;-65
2022/06/21 10:14:44;;;;;;;;;3.00;3.00;;;;;19.35;48.32;101586.66;5017751;28;9533;-65
2022/06/21 10:17:19;;;;;;;;;2.00;2.00;;;;;19.41;48.36;101583.00;5017054;28;8848;-65
2022/06/21 10:20:24;;;;;;;;;2.00;2.00;;;;;19.52;48.63;101578.59;5025495;28;8848;-64
2022/06/21 10:23:18;;;;;;;;;2.50;2.00;;;;;19.54;47.86;101576.47;5021736;28;8857;-66
2022/06/21 10:26:03;;;;;;;;;3.00;3.00;;;;;19.43;47.39;101572.66;5009904;28;8824;-66
2022/06/21 10:28:49;;;;;;;;;3.00;3.00;;;;;19.38;47.00;101569.81;5009408;28;8831;-66
2022/06/21 10:31:37;;;;;;;;;2.50;2.00;;;;;19.30;47.29;101572.06;5022396;28;8849;-66
2022/06/21 10:34:26;;;;;;;;;1.75;1.75;;;;;19.25;47.53;101562.66;5024920;28;8891;-66
2022/06/21 10:37:17;;;;;;;;;2.00;2.00;;;;;19.29;47.16;101556.75;5027900;28;10108;-66
2022/06/21 10:40:09;;;;;;;;;1.75;1.75;;;;;19.25;47.34;101556.38;5019885;28;8876;-65
2022/06/21 10:43:14;;;;;;;;;2.00;2.00;;;;;19.27;47.79;101551.50;5021287;28;9598;-66
2022/06/21 10:45:53;;;;;;;;;1.25;1.25;;;;;19.33;47.93;101541.56;5030717;28;9489;-64
2022/06/21 10:48:32;;;;;;;;;1.50;1.50;;;;;19.33;47.73;101544.28;5011422;28;8960;-66
2022/06/21 10:50:58;;;;;;;;;1.00;1.00;;;;;19.33;47.03;101544.28;5028324;28;9520;-66
2022/06/21 10:53:43;;;;;;;;;1.00;1.00;;;;;19.35;47.07;101542.97;5018013;28;8844;-65
2022/06/21 11:01:16;;;;;;;;;2.00;1.00;;;;;19.46;46.74;101538.59;5032874;28;8916;-66
2022/06/21 11:02:44;;;;;;;;;0.50;0.50;;;;;19.63;45.49;101531.38;5031912;28;8833;-66
2022/06/21 11:05:32;;;;;;;;;3.25;2.00;;;;;19.65;44.40;101540.19;5031524;28;8837;-67
2022/06/21 11:08:25;;;;;;;;;3.00;3.00;;;;;19.69;44.34;101540.53;5032262;28;8813;-65
2022/06/21 11:11:13;;;;;;;;;2.25;2.25;;;;;19.69;44.69;101546.84;5032459;28;8849;-67
2022/06/21 11:13:53;;;;;;;;;3.25;1.00;;;;;19.75;44.85;101543.13;5031427;28;8837;-65
2022/06/21 11:16:54;;;;;;;;;3.00;3.00;;;;;19.79;45.24;101546.22;5022919;28;8826;-66
2022/06/21 11:19:53;;;;;;;;;1.25;1.25;;;;;19.80;45.37;101542.41;5023299;28;8852;-66
2022/06/21 11:22:41;;;;;;;;;0.75;0.75;;;;;19.82;44.85;101537.56;5017891;28;8847;-65
2022/06/21 11:25:34;;;;;;;;;1.25;1.25;;;;;19.87;44.84;101537.66;5031228;28;8862;-66
2022/06/21 11:28:28;;;;;;;;;2.00;2.00;;;;;19.89;44.66;101541.00;5020014;28;8823;-64
2022/06/21 11:31:09;;;;;;;;;2.50;2.50;;;;;19.89;44.49;101531.94;5018123;28;8954;-64
2022/06/21 11:33:54;;;;;;;;;1.50;1.50;;;;;19.89;44.59;101532.81;5027707;28;8827;-64
2022/06/21 11:36:37;;;;;;;;;3.00;2.00;;;;;19.96;44.85;101538.94;5023744;28;9454;-65
2022/06/21 11:39:11;;;;;;;;;2.00;2.00;;;;;20.05;44.64;101541.31;5031840;28;8892;-64
2022/06/21 11:42:10;;;;;;;;;1.00;1.00;;;;;20.14;44.77;101535.25;5032129;28;8903;-65
2022/06/21 11:44:55;;;;;;;;;2.25;2.25;;;;;20.24;43.69;101542.81;5031912;28;8833;-65
2022/06/21 11:47:32;;;;;;;;;2.00;2.00;;;;;20.25;44.72;101539.00;5012164;28;8843;-67
2022/06/21 11:50:23;;;;;;;;;3.00;3.00;;;;;20.27;44.53;101542.34;5012572;28;8827;-66
2022/06/21 11:53:17;;;;;;;;;2.25;2.25;;;;;20.14;44.30;101540.72;5012098;28;8830;-66
2022/06/21 11:55:51;;;;;;;;;3.00;3.00;;;;;20.16;44.13;101540.47;5011703;28;9578;-64
2022/06/21 11:58:27;;;;;;;;;2.25;2.25;;;;;20.26;44.34;101537.97;5011417;28;8827;-66
2022/06/21 12:01:32;;;;;;;;;3.25;3.00;;;;;20.33;44.26;101537.81;5012866;28;9599;-66
2022/06/21 12:04:13;;;;;;;;;3.00;3.00;;;;;20.38;43.78;101532.47;5011724;28;8851;-66
2022/06/21 12:06:59;;;;;;;;;2.50;2.50;;;;;20.42;43.91;101530.91;5012280;28;8847;-67
2022/06/21 12:09:41;;;;;;;;;1.50;1.50;;;;;20.53;43.35;101531.94;5013529;28;8945;-68
2022/06/21 12:12:27;;;;;;;;;4.00;4.00;;;;;20.59;43.67;101534.56;5012804;28;8836;-66
2022/06/21 12:15:19;;;;;;;;;2.50;2.00;;;;;20.72;43.24;101511.53;5011451;28;8815;-67
2022/06/21 12:17:53;;;;;;;;;2.00;2.00;;;;;20.82;43.27;101519.09;5016119;28;8822;-66
2022/06/21 12:20:40;;;;;;;;;2.75;2.75;;;;;20.88;43.05;101512.66;5032496;28;8964;-65
2022/06/21 12:23:20;;;;;;;;;2.00;2.00;;;;;20.89;43.05;101504.19;5031780;28;9521;-65
2022/06/21 12:25:47;;;;;;;;;2.00;2.00;;;;;20.82;43.37;101503.50;5034114;28;8887;-67
2022/06/21 12:28:20;;;;;;;;;4.00;2.75;;;;;20.78;43.40;101504.25;5033450;28;8887;-67
2022/06/21 12:31:01;;;;;;;;;4.25;3.00;;;;;20.81;43.57;101509.22;5033973;28;8853;-66
2022/06/21 12:33:36;;;;;;;;;3.00;3.00;;;;;20.89;43.47;101508.81;5033514;28;8825;-65
2022/06/21 12:36:03;;;;;;;;;2.75;2.75;;;;;20.92;43.03;101503.69;5032855;28;8841;-66
2022/06/21 12:38:35;;;;;;;;;5.00;5.00;;;;;20.82;43.05;101502.66;5033215;28;8830;-66
2022/06/21 12:41:16;;;;;;;;;2.50;2.50;;;;;20.74;43.32;101490.22;5033687;28;9544;-67
2022/06/21 12:44:04;;;;;;;;;1.75;1.75;;;;;20.79;43.91;101501.28;5033417;28;8817;-65